createdAt,value
2022-07-30T00:01:41.573Z,100767.00
2022-07-30T00:06:41.470Z,100765.00
2022-07-30T00:11:41.503Z,100767.00
2022-07-30T00:16:41.602Z,100767.00
2022-07-30T00:21:41.462Z,100765.00
2022-07-30T00:26:42.529Z,100763.00
2022-07-30T00:31:43.456Z,100759.00
2022-07-30T00:36:43.536Z,100761.00
2022-07-30T00:41:43.479Z,100757.00
2022-07-30T00:46:43.638Z,100759.00
2022-07-30T00:51:43.620Z,100759.00
2022-07-30T00:56:43.572Z,100763.00
2022-07-30T01:01:45.379Z,100759.00
2022-07-30T01:06:45.470Z,100755.00
2022-07-30T01:11:45.698Z,100757.00
2022-07-30T01:16:45.661Z,100761.00
2022-07-30T01:21:45.577Z,100757.00
2022-07-30T01:26:45.613Z,100759.00
2022-07-30T01:31:45.772Z,100757.00
2022-07-30T01:36:45.589Z,100755.00
2022-07-30T01:41:45.523Z,100757.00
2022-07-30T01:46:45.763Z,100763.00
2022-07-30T01:51:45.585Z,100769.00
2022-07-30T01:56:45.629Z,100775.00
2022-07-30T02:01:45.506Z,100773.00
2022-07-30T02:06:47.485Z,100777.00
2022-07-30T02:12:06.286Z,100780.00
2022-07-30T02:17:06.603Z,100784.00
2022-07-30T02:22:08.529Z,100784.00
2022-07-30T02:27:08.672Z,100782.00
2022-07-30T02:32:08.732Z,100788.00
2022-07-30T02:37:09.160Z,100792.00
2022-07-30T02:42:09.604Z,100801.00
2022-07-30T02:47:17.467Z,100805.00
2022-07-30T02:52:17.664Z,100807.00
2022-07-30T02:57:18.175Z,100807.00
2022-07-30T03:02:18.877Z,100809.00
2022-07-30T03:07:20.748Z,100811.00
2022-07-30T03:12:20.668Z,100815.00
2022-07-30T03:17:20.653Z,100817.00
2022-07-30T03:22:20.630Z,100819.00
2022-07-30T03:27:20.673Z,100820.00
2022-07-30T03:32:25.920Z,100824.00
2022-07-30T03:37:23.580Z,100820.00
2022-07-30T03:42:23.742Z,100820.00
2022-07-30T03:47:25.620Z,100820.00
2022-07-30T03:52:25.712Z,100820.00
2022-07-30T03:57:26.288Z,100828.00
2022-07-30T04:02:40.718Z,100834.00
2022-07-30T04:07:44.788Z,100840.00
2022-07-30T04:12:42.715Z,100844.00
2022-07-30T04:17:42.967Z,100852.00
2022-07-30T04:22:43.195Z,100858.00
2022-07-30T04:28:01.928Z,100860.00
2022-07-30T04:32:48.635Z,100862.00
2022-07-30T04:37:48.913Z,100867.00
2022-07-30T04:42:48.997Z,100869.00
2022-07-30T04:47:53.575Z,100877.00
2022-07-30T04:52:56.546Z,100887.00
2022-07-30T04:57:56.628Z,100893.00
2022-07-30T05:02:56.675Z,100899.00
2022-07-30T05:07:56.986Z,100903.00
2022-07-30T05:12:56.939Z,100907.00
2022-07-30T05:17:57.761Z,100909.00
2022-07-30T05:22:57.947Z,100913.00
2022-07-30T05:27:58.968Z,100918.00
2022-07-30T05:32:59.067Z,100918.00
2022-07-30T05:38:05.578Z,100922.00
2022-07-30T05:43:05.881Z,100924.00
2022-07-30T05:48:06.288Z,100924.00
2022-07-30T05:53:25.289Z,100924.00
2022-07-30T05:58:25.736Z,100928.00
2022-07-30T06:03:33.554Z,100932.00
2022-07-30T06:08:34.298Z,100932.00
2022-07-30T06:13:34.751Z,100940.00
2022-07-30T06:18:36.744Z,100944.00
2022-07-30T06:23:58.483Z,100950.00
2022-07-30T06:29:00.717Z,100954.00
2022-07-30T06:34:02.710Z,100954.00
2022-07-30T06:39:07.553Z,100954.00
2022-07-30T06:44:24.943Z,100956.00
2022-07-30T06:49:27.661Z,100962.00
2022-07-30T06:54:29.854Z,100962.00
2022-07-30T06:59:56.809Z,100965.00
2022-07-30T07:04:45.814Z,100965.00
2022-07-30T07:10:04.165Z,100967.00
2022-07-30T07:15:03.782Z,100967.00
2022-07-30T07:20:05.760Z,100973.00
2022-07-30T07:25:07.158Z,100979.00
2022-07-30T07:30:08.534Z,100983.00
2022-07-30T07:35:11.331Z,100981.00
2022-07-30T07:40:12.696Z,100987.00
2022-07-30T07:45:14.676Z,100987.00
2022-07-30T07:50:15.174Z,100989.00
2022-07-30T07:55:14.962Z,100999.00
2022-07-30T08:00:20.760Z,100997.00
2022-07-30T08:05:25.597Z,100993.00
2022-07-30T08:10:29.725Z,100993.00
2022-07-30T08:15:32.929Z,100993.00
2022-07-30T08:20:33.633Z,100987.00
2022-07-30T08:25:33.855Z,100981.00
2022-07-30T08:35:33.818Z,100965.00
2022-07-30T08:40:35.726Z,100956.00
2022-07-30T08:45:40.709Z,100952.00
2022-07-30T08:50:45.731Z,100948.00
2022-07-30T08:55:46.203Z,100946.00
2022-07-30T09:00:45.903Z,100948.00
2022-07-30T09:05:46.384Z,100940.00
2022-07-30T09:11:39.104Z,100938.00
2022-07-30T09:16:39.222Z,100936.00
2022-07-30T09:21:55.945Z,100932.00
2022-07-30T09:27:13.197Z,100934.00
2022-07-30T09:32:31.559Z,100934.00
2022-07-30T09:37:39.833Z,100936.00
2022-07-30T09:42:41.782Z,100934.00
2022-07-30T09:47:41.926Z,100930.00
2022-07-30T09:52:43.962Z,100924.00
2022-07-30T09:57:49.850Z,100924.00
2022-07-30T10:03:01.039Z,100920.00
2022-07-30T10:08:16.385Z,100924.00
2022-07-30T10:13:07.486Z,100926.00
2022-07-30T10:18:20.900Z,100918.00
2022-07-30T10:23:36.335Z,100920.00
2022-07-30T10:28:39.516Z,100917.00
2022-07-30T10:33:40.475Z,100913.00
2022-07-30T10:38:43.039Z,100917.00
2022-07-30T10:43:42.962Z,100917.00
2022-07-30T10:48:45.175Z,100918.00
2022-07-30T10:53:46.324Z,100920.00
2022-07-30T10:58:47.418Z,100918.00
2022-07-30T11:03:47.991Z,100915.00
2022-07-30T11:08:49.974Z,100913.00
2022-07-30T11:13:51.510Z,100907.00
2022-07-30T11:19:19.433Z,100905.00
2022-07-30T11:23:56.742Z,100901.00
2022-07-30T11:28:56.972Z,100899.00
2022-07-30T11:33:57.012Z,100897.00
2022-07-30T11:39:05.426Z,100899.00
2022-07-30T11:44:01.079Z,100903.00
2022-07-30T11:49:02.322Z,100901.00
2022-07-30T11:54:02.696Z,100897.00
2022-07-30T11:59:03.070Z,100901.00
2022-07-30T12:04:03.078Z,100903.00
2022-07-30T12:09:03.034Z,100905.00
2022-07-30T12:14:03.135Z,100907.00
2022-07-30T12:19:03.040Z,100911.00
2022-07-30T12:24:03.151Z,100905.00
2022-07-30T12:29:03.145Z,100903.00
2022-07-30T12:34:03.175Z,100901.00
2022-07-30T12:39:03.108Z,100901.00
2022-07-30T12:44:03.145Z,100899.00
2022-07-30T12:49:08.179Z,100893.00
2022-07-30T12:54:05.165Z,100891.00
2022-07-30T12:59:05.123Z,100891.00
2022-07-30T13:04:05.235Z,100891.00
2022-07-30T13:09:05.153Z,100889.00
2022-07-30T13:14:05.383Z,100891.00
2022-07-30T13:19:05.226Z,100889.00
2022-07-30T13:24:05.156Z,100891.00
2022-07-30T13:29:05.320Z,100891.00
2022-07-30T13:34:05.161Z,100891.00
2022-07-30T13:39:05.164Z,100893.00
2022-07-30T13:44:05.232Z,100895.00
2022-07-30T13:49:05.326Z,100889.00
2022-07-30T13:54:05.491Z,100889.00
2022-07-30T13:59:05.216Z,100889.00
2022-07-30T14:04:05.631Z,100887.00
2022-07-30T14:09:05.213Z,100881.00
2022-07-30T14:14:05.206Z,100881.00
2022-07-30T14:19:08.227Z,100879.00
2022-07-30T14:24:11.568Z,100875.00
2022-07-30T14:29:11.263Z,100873.00
2022-07-30T14:34:11.246Z,100863.00
2022-07-30T14:39:11.366Z,100858.00
2022-07-30T14:44:14.878Z,100858.00
2022-07-30T14:49:16.283Z,100852.00
2022-07-30T14:54:16.425Z,100856.00
2022-07-30T14:59:16.755Z,100858.00
2022-07-30T15:04:17.347Z,100858.00
2022-07-30T15:09:17.190Z,100860.00
2022-07-30T15:14:17.213Z,100860.00
2022-07-30T15:19:19.188Z,100858.00
2022-07-30T15:24:19.178Z,100856.00
2022-07-30T15:29:19.254Z,100856.00
2022-07-30T15:34:19.210Z,100856.00
2022-07-30T15:39:19.214Z,100860.00
2022-07-30T15:44:20.075Z,100858.00
2022-07-30T15:49:20.252Z,100858.00
2022-07-30T15:54:22.870Z,100862.00
2022-07-30T15:59:23.263Z,100862.00
2022-07-30T16:04:31.173Z,100860.00
2022-07-30T16:09:25.277Z,100862.00
2022-07-30T16:14:27.269Z,100858.00
2022-07-30T16:19:27.999Z,100862.00
2022-07-30T16:24:28.387Z,100858.00
2022-07-30T16:29:28.292Z,100850.00
2022-07-30T16:34:28.428Z,100850.00
2022-07-30T16:39:28.247Z,100848.00
2022-07-30T16:44:30.180Z,100846.00
2022-07-30T16:49:30.451Z,100846.00
2022-07-30T16:54:31.740Z,100850.00
2022-07-30T16:59:31.479Z,100846.00
2022-07-30T17:04:33.246Z,100846.00
2022-07-30T17:09:36.670Z,100846.00
2022-07-30T17:14:35.375Z,100844.00
2022-07-30T17:19:35.306Z,100842.00
2022-07-30T17:24:35.364Z,100844.00
2022-07-30T17:29:49.712Z,100846.00
2022-07-30T17:34:37.303Z,100848.00
2022-07-30T17:40:27.312Z,100850.00
2022-07-30T17:44:39.514Z,100854.00
2022-07-30T17:49:42.387Z,100860.00
2022-07-30T17:54:42.340Z,100858.00
2022-07-30T17:59:42.390Z,100863.00
2022-07-30T18:04:42.407Z,100871.00
2022-07-30T18:09:42.531Z,100875.00
2022-07-30T18:14:42.676Z,100877.00
2022-07-30T18:19:42.390Z,100871.00
2022-07-30T18:24:43.725Z,100879.00
2022-07-30T18:29:44.416Z,100881.00
2022-07-30T18:34:44.657Z,100883.00
2022-07-30T18:39:44.424Z,100891.00
2022-07-30T18:44:44.419Z,100893.00
2022-07-30T18:49:44.686Z,100895.00
2022-07-30T18:54:44.434Z,100897.00
2022-07-30T18:59:44.412Z,100895.00
2022-07-30T19:04:44.640Z,100897.00
2022-07-30T19:09:45.549Z,100895.00
2022-07-30T19:14:45.442Z,100893.00
2022-07-30T19:19:45.490Z,100893.00
2022-07-30T19:24:45.391Z,100893.00
2022-07-30T19:29:46.478Z,100893.00
2022-07-30T19:34:46.402Z,100893.00
2022-07-30T19:40:06.237Z,100899.00
2022-07-30T19:44:48.457Z,100899.00
2022-07-30T19:49:48.473Z,100907.00
2022-07-30T19:54:48.533Z,100909.00
2022-07-30T20:00:00.198Z,100909.00
2022-07-30T20:04:50.524Z,100915.00
2022-07-30T20:09:52.461Z,100915.00
2022-07-30T20:14:53.483Z,100911.00
2022-07-30T20:19:53.988Z,100913.00
2022-07-30T20:24:54.649Z,100915.00
2022-07-30T20:29:54.440Z,100920.00
2022-07-30T20:34:54.584Z,100922.00
2022-07-30T20:39:55.578Z,100926.00
2022-07-30T20:44:56.554Z,100926.00
2022-07-30T20:49:56.524Z,100930.00
2022-07-30T20:54:56.493Z,100930.00
2022-07-30T20:59:56.545Z,100930.00
2022-07-30T21:04:59.807Z,100928.00
2022-07-30T21:09:59.486Z,100924.00
2022-07-30T21:14:59.506Z,100920.00
2022-07-30T21:19:59.555Z,100920.00
2022-07-30T21:25:01.517Z,100920.00
2022-07-30T21:30:03.461Z,100917.00
2022-07-30T21:35:08.127Z,100917.00
2022-07-30T21:40:05.743Z,100913.00
2022-07-30T21:45:05.558Z,100909.00
2022-07-30T21:50:09.041Z,100913.00
2022-07-30T21:55:09.592Z,100909.00
2022-07-30T22:00:13.754Z,100905.00
2022-07-30T22:05:14.617Z,100901.00
2022-07-30T22:10:15.563Z,100899.00
2022-07-30T22:15:17.553Z,100901.00
2022-07-30T22:20:17.690Z,100897.00
2022-07-30T22:25:18.543Z,100897.00
2022-07-30T22:30:20.530Z,100897.00
2022-07-30T22:35:33.613Z,100893.00
2022-07-30T22:40:24.776Z,100887.00
2022-07-30T22:45:47.117Z,100887.00
2022-07-30T22:50:26.772Z,100889.00
2022-07-30T22:55:26.718Z,100889.00
2022-07-30T23:00:27.292Z,100889.00
2022-07-30T23:05:28.671Z,100889.00
2022-07-30T23:10:29.695Z,100891.00
2022-07-30T23:15:29.651Z,100891.00
2022-07-30T23:20:29.630Z,100893.00
2022-07-30T23:25:38.568Z,100893.00
2022-07-30T23:30:34.143Z,100887.00
2022-07-30T23:35:33.584Z,100885.00
2022-07-30T23:40:33.614Z,100879.00
2022-07-30T23:45:33.583Z,100873.00
2022-07-30T23:50:33.761Z,100869.00
2022-07-30T23:55:33.639Z,100863.00
